PWSweather.com
Personal Weather Stations
Station Observations
KMIEASTT1
Tawas Bay, East Tawas, MI 48730

Tawas BayEast Tawas, MI 48730

Lat: 44.28, Lon: -83.48

Elevation: 600

Station Type: Davis VantagePro

http://www.tawasbayweather.com

High Low Average
Temperature 31.2°F-0.4°C 21.0°F-6.1°C 26.8°F-2.9°C
Dew Point 28.6°F-1.9°C 15.5°F-9.2°C 23.5°F-4.7°C
Winds 25.0 mph 40.2 kmh Calm Calm 8.0 mph WSW12.9 kmh WSW
Wind Gusts 26.0 mph41.8 kmh -- 12.0 mph19.3 kmh
Humidity 95% 73% 87%
Pressure 30.15 in1021.0 mb 29.78 in1008.5 mb -
Precipitation 0.00 in0.0 mm - -
Hour Temp Dew Point Humidity Winds Wind Gusts Pressure Precip Precip Rate Daily Precip Total
12:00 AM 26.0°F-3.3°C 18.9°F-7.3°C 74% 25.0 mph W40.2 kmh W 25.0 mph40.2 kmh 30.15 in1021.0 mb 0.00 in0.0 mm 0.00 in/hr0.0 mm/hr 0.00 in0.0 mm
12:15 AM 26.0°F-3.3°C 18.9°F-7.3°C 74% 22.0 mph W35.4 kmh W 25.0 mph40.2 kmh 30.14 in1020.7 mb 0.00 in0.0 mm 0.00 in/hr0.0 mm/hr 0.00 in0.0 mm
12:30 AM 25.9°F-3.4°C 18.5°F-7.5°C 73% 21.0 mph WNW33.8 kmh WNW 24.0 mph38.6 kmh 30.14 in1020.7 mb 0.00 in0.0 mm 0.00 in/hr0.0 mm/hr 0.00 in0.0 mm
12:45 AM 24.3°F-4.3°C 19.3°F-7.1°C 81% 9.0 mph SE14.5 kmh SE 14.0 mph22.5 kmh 30.13 in1020.3 mb 0.00 in0.0 mm 0.00 in/hr0.0 mm/hr 0.00 in0.0 mm
01:00 AM 24.3°F-4.3°C 19.3°F-7.1°C 81% 10.0 mph SE16.1 kmh SE 15.0 mph24.1 kmh 30.13 in1020.3 mb 0.00 in0.0 mm 0.00 in/hr0.0 mm/hr 0.00 in0.0 mm
01:15 AM 24.3°F-4.3°C 19.0°F-7.2°C 80% 8.0 mph SE12.9 kmh SE 18.0 mph29.0 kmh 30.12 in1020.0 mb 0.00 in0.0 mm 0.00 in/hr0.0 mm/hr 0.00 in0.0 mm
01:30 AM 24.2°F-4.3°C 19.2°F-7.1°C 81% 10.0 mph SE16.1 kmh SE 13.0 mph20.9 kmh 30.11 in1019.6 mb 0.00 in0.0 mm 0.00 in/hr0.0 mm/hr 0.00 in0.0 mm
01:45 AM 24.2°F-4.3°C 19.5°F-6.9°C 82% 10.0 mph SE16.1 kmh SE 14.0 mph22.5 kmh 30.09 in1019.0 mb 0.00 in0.0 mm 0.00 in/hr0.0 mm/hr 0.00 in0.0 mm
02:00 AM 24.4°F-4.2°C 19.7°F-6.8°C 82% 9.0 mph SE14.5 kmh SE 13.0 mph20.9 kmh 30.08 in1018.6 mb 0.00 in0.0 mm 0.00 in/hr0.0 mm/hr 0.00 in0.0 mm
02:15 AM 24.4°F-4.2°C 20.0°F-6.7°C 83% 11.0 mph SE17.7 kmh SE 15.0 mph24.1 kmh 30.07 in1018.3 mb 0.00 in0.0 mm 0.00 in/hr0.0 mm/hr 0.00 in0.0 mm
02:30 AM 24.5°F-4.2°C 20.1°F-6.6°C 83% 12.0 mph SE19.3 kmh SE 16.0 mph25.7 kmh 30.06 in1017.9 mb 0.00 in0.0 mm 0.00 in/hr0.0 mm/hr 0.00 in0.0 mm
02:45 AM 24.7°F-4.1°C 20.0°F-6.7°C 82% 10.0 mph ESE16.1 kmh ESE 16.0 mph25.7 kmh 30.05 in1017.6 mb 0.00 in0.0 mm 0.00 in/hr0.0 mm/hr 0.00 in0.0 mm
03:00 AM 24.7°F-4.1°C 20.0°F-6.7°C 82% 8.0 mph SE12.9 kmh SE 15.0 mph24.1 kmh 30.04 in1017.3 mb 0.00 in0.0 mm 0.00 in/hr0.0 mm/hr 0.00 in0.0 mm
03:15 AM 24.8°F-4.0°C 20.7°F-6.3°C 84% 9.0 mph SE14.5 kmh SE 15.0 mph24.1 kmh 30.03 in1016.9 mb 0.00 in0.0 mm 0.00 in/hr0.0 mm/hr 0.00 in0.0 mm
03:30 AM 24.9°F-3.9°C 21.0°F-6.1°C 85% 11.0 mph SE17.7 kmh SE 12.0 mph19.3 kmh 30.02 in1016.6 mb 0.00 in0.0 mm 0.00 in/hr0.0 mm/hr 0.00 in0.0 mm
03:45 AM 25.1°F-3.8°C 21.0°F-6.1°C 84% 9.0 mph SE14.5 kmh SE 12.0 mph19.3 kmh 30.01 in1016.3 mb 0.00 in0.0 mm 0.00 in/hr0.0 mm/hr 0.00 in0.0 mm
04:00 AM 25.3°F-3.7°C 21.4°F-5.9°C 85% 6.0 mph SSE9.7 kmh SSE 10.0 mph16.1 kmh 30.00 in1015.9 mb 0.00 in0.0 mm 0.00 in/hr0.0 mm/hr 0.00 in0.0 mm
04:15 AM 25.7°F-3.5°C 21.5°F-5.8°C 84% 9.0 mph SSE14.5 kmh SSE 11.0 mph17.7 kmh 29.99 in1015.6 mb 0.00 in0.0 mm 0.00 in/hr0.0 mm/hr 0.00 in0.0 mm
04:30 AM 25.8°F-3.4°C 21.1°F-6.1°C 82% 9.0 mph SSE14.5 kmh SSE 13.0 mph20.9 kmh 29.99 in1015.6 mb 0.00 in0.0 mm 0.00 in/hr0.0 mm/hr 0.00 in0.0 mm
04:45 AM 27.3°F-2.6°C 21.4°F-5.9°C 78% 16.0 mph WNW25.7 kmh WNW 20.0 mph32.2 kmh 29.97 in1014.9 mb 0.00 in0.0 mm 0.00 in/hr0.0 mm/hr 0.00 in0.0 mm
05:00 AM 27.3°F-2.6°C 21.4°F-5.9°C 78% 16.0 mph WNW25.7 kmh WNW 20.0 mph32.2 kmh 29.97 in1014.9 mb 0.00 in0.0 mm 0.00 in/hr0.0 mm/hr 0.00 in0.0 mm
05:15 AM 27.4°F-2.6°C 21.8°F-5.7°C 79% 12.0 mph WNW19.3 kmh WNW 20.0 mph32.2 kmh 29.96 in1014.6 mb 0.00 in0.0 mm 0.00 in/hr0.0 mm/hr 0.00 in0.0 mm
05:30 AM 27.4°F-2.6°C 22.1°F-5.5°C 80% 16.0 mph WNW25.7 kmh WNW 18.0 mph29.0 kmh 29.95 in1014.2 mb 0.00 in0.0 mm 0.00 in/hr0.0 mm/hr 0.00 in0.0 mm
05:45 AM 27.1°F-2.7°C 22.1°F-5.5°C 81% 15.0 mph NW24.1 kmh NW 17.0 mph27.4 kmh 29.94 in1013.9 mb 0.00 in0.0 mm 0.00 in/hr0.0 mm/hr 0.00 in0.0 mm
06:00 AM 25.6°F-3.6°C 22.8°F-5.1°C 89% 18.0 mph WNW29.0 kmh WNW 24.0 mph38.6 kmh 29.93 in1013.5 mb 0.00 in0.0 mm 0.00 in/hr0.0 mm/hr 0.00 in0.0 mm
06:15 AM 25.2°F-3.8°C 23.5°F-4.7°C 93% 22.0 mph WNW35.4 kmh WNW 26.0 mph41.8 kmh 29.92 in1013.2 mb 0.00 in0.0 mm 0.00 in/hr0.0 mm/hr 0.00 in0.0 mm
06:30 AM 25.2°F-3.8°C 23.7°F-4.6°C 94% 20.0 mph WNW32.2 kmh WNW 22.0 mph35.4 kmh 29.91 in1012.9 mb 0.00 in0.0 mm 0.00 in/hr0.0 mm/hr 0.00 in0.0 mm
06:45 AM 25.3°F-3.7°C 23.8°F-4.6°C 94% 17.0 mph WNW27.4 kmh WNW 21.0 mph33.8 kmh 29.90 in1012.5 mb 0.00 in0.0 mm 0.00 in/hr0.0 mm/hr 0.00 in0.0 mm
07:00 AM 25.5°F-3.6°C 24.0°F-4.4°C 94% 17.0 mph WNW27.4 kmh WNW 23.0 mph37.0 kmh 29.87 in1011.5 mb 0.00 in0.0 mm 0.00 in/hr0.0 mm/hr 0.00 in0.0 mm
07:15 AM 24.7°F-4.1°C 23.2°F-4.9°C 94% 9.0 mph S14.5 kmh S 13.0 mph20.9 kmh 29.86 in1011.2 mb 0.00 in0.0 mm 0.00 in/hr0.0 mm/hr 0.00 in0.0 mm
07:30 AM 24.8°F-4.0°C 23.3°F-4.8°C 94% 9.0 mph S14.5 kmh S 12.0 mph19.3 kmh 29.85 in1010.8 mb 0.00 in0.0 mm 0.00 in/hr0.0 mm/hr 0.00 in0.0 mm
07:45 AM 24.8°F-4.0°C 23.3°F-4.8°C 94% 9.0 mph S14.5 kmh S 12.0 mph19.3 kmh 29.84 in1010.5 mb 0.00 in0.0 mm 0.00 in/hr0.0 mm/hr 0.00 in0.0 mm
08:00 AM 25.0°F-3.9°C 23.8°F-4.6°C 95% 8.0 mph S12.9 kmh S 9.0 mph14.5 kmh 29.84 in1010.5 mb 0.01 in0.3 mm 0.01 in/hr0.3 mm/hr 0.01 in0.3 mm
08:15 AM 25.2°F-3.8°C 24.0°F-4.4°C 95% 9.0 mph S14.5 kmh S 10.0 mph16.1 kmh 29.84 in1010.5 mb 0.01 in0.3 mm 0.00 in/hr0.0 mm/hr 0.01 in0.3 mm
08:30 AM 25.2°F-3.8°C 23.7°F-4.6°C 94% 6.0 mph SSE9.7 kmh SSE 11.0 mph17.7 kmh 29.84 in1010.5 mb 0.01 in0.3 mm 0.00 in/hr0.0 mm/hr 0.01 in0.3 mm
08:45 AM 25.0°F-3.9°C 23.5°F-4.7°C 94% 7.0 mph S11.3 kmh S 9.0 mph14.5 kmh 29.84 in1010.5 mb 0.02 in0.5 mm 0.04 in/hr1.0 mm/hr 0.02 in0.5 mm
09:00 AM 25.0°F-3.9°C 23.8°F-4.6°C 95% 8.0 mph S12.9 kmh S 9.0 mph14.5 kmh 29.84 in1010.5 mb 0.02 in0.5 mm 0.00 in/hr0.0 mm/hr 0.02 in0.5 mm
09:15 AM 25.0°F-3.9°C 23.8°F-4.6°C 95% 6.0 mph S9.7 kmh S 8.0 mph12.9 kmh 29.83 in1010.2 mb 0.02 in0.5 mm 0.00 in/hr0.0 mm/hr 0.02 in0.5 mm
09:30 AM 24.9°F-3.9°C 23.7°F-4.6°C 95% 5.0 mph SSW8.0 kmh SSW 7.0 mph11.3 kmh 29.83 in1010.2 mb 0.02 in0.5 mm 0.00 in/hr0.0 mm/hr 0.02 in0.5 mm
09:45 AM 24.9°F-3.9°C 23.7°F-4.6°C 95% 4.0 mph SSW6.4 kmh SSW 7.0 mph11.3 kmh 29.83 in1010.2 mb 0.02 in0.5 mm 0.00 in/hr0.0 mm/hr 0.02 in0.5 mm
10:00 AM 25.0°F-3.9°C 23.8°F-4.6°C 95% 4.0 mph SSW6.4 kmh SSW 5.0 mph8.0 kmh 29.83 in1010.2 mb 0.02 in0.5 mm 0.00 in/hr0.0 mm/hr 0.02 in0.5 mm
10:15 AM 25.1°F-3.8°C 23.9°F-4.5°C 95% 4.0 mph SSW6.4 kmh SSW 5.0 mph8.0 kmh 29.83 in1010.2 mb 0.02 in0.5 mm 0.00 in/hr0.0 mm/hr 0.02 in0.5 mm
10:30 AM 25.1°F-3.8°C 23.9°F-4.5°C 95% 2.0 mph SW3.2 kmh SW 4.0 mph6.4 kmh 29.83 in1010.2 mb 0.07 in1.8 mm 0.20 in/hr5.1 mm/hr 0.07 in1.8 mm
10:45 AM 25.1°F-3.8°C 23.9°F-4.5°C 95% 3.0 mph SW4.8 kmh SW 3.0 mph4.8 kmh 29.83 in1010.2 mb 0.06 in1.5 mm 0.00 in/hr0.0 mm/hr 0.07 in1.8 mm
11:00 AM 25.1°F-3.8°C 23.9°F-4.5°C 95% 2.0 mph SW3.2 kmh SW 3.0 mph4.8 kmh 29.83 in1010.2 mb 0.07 in1.8 mm 0.01 in/hr0.3 mm/hr 0.08 in2.0 mm
11:15 AM 25.2°F-3.8°C 24.0°F-4.4°C 95% Calm Calm 1.0 mph1.6 kmh 29.82 in1009.8 mb 0.08 in2.0 mm 0.04 in/hr1.0 mm/hr 0.09 in2.3 mm
11:30 AM 25.4°F-3.7°C 24.2°F-4.3°C 95% Calm Calm -- 29.82 in1009.8 mb 0.09 in2.3 mm 0.04 in/hr1.0 mm/hr 0.10 in2.5 mm
11:45 AM 25.5°F-3.6°C 24.3°F-4.3°C 95% 1.0 mph SW1.6 kmh SW 1.0 mph1.6 kmh 29.81 in1009.5 mb 0.03 in0.8 mm 0.00 in/hr0.0 mm/hr 0.10 in2.5 mm
12:00 PM 26.0°F-3.3°C 24.8°F-4.0°C 95% 1.0 mph WNW1.6 kmh WNW 3.0 mph4.8 kmh 29.81 in1009.5 mb 0.03 in0.8 mm 0.00 in/hr0.0 mm/hr 0.10 in2.5 mm
12:15 PM 26.5°F-3.1°C 25.3°F-3.7°C 95% 2.0 mph WNW3.2 kmh WNW 5.0 mph8.0 kmh 29.81 in1009.5 mb 0.02 in0.5 mm 0.00 in/hr0.0 mm/hr 0.10 in2.5 mm
12:30 PM 26.6°F-3.0°C 25.1°F-3.8°C 94% 2.0 mph NW3.2 kmh NW 3.0 mph4.8 kmh 29.80 in1009.1 mb 0.02 in0.5 mm 0.00 in/hr0.0 mm/hr 0.10 in2.5 mm
12:45 PM 26.9°F-2.8°C 25.4°F-3.7°C 94% 1.0 mph W1.6 kmh W 4.0 mph6.4 kmh 29.79 in1008.8 mb 0.00 in0.0 mm 0.00 in/hr0.0 mm/hr 0.10 in2.5 mm
01:00 PM 27.1°F-2.7°C 25.6°F-3.6°C 94% 3.0 mph NW4.8 kmh NW 3.0 mph4.8 kmh 29.79 in1008.8 mb 0.01 in0.3 mm 0.01 in/hr0.3 mm/hr 0.11 in2.8 mm
01:15 PM 27.4°F-2.6°C 25.9°F-3.4°C 94% 4.0 mph W6.4 kmh W 7.0 mph11.3 kmh 29.79 in1008.8 mb 0.01 in0.3 mm 0.00 in/hr0.0 mm/hr 0.11 in2.8 mm
01:30 PM 28.0°F-2.2°C 26.5°F-3.1°C 94% 2.0 mph WNW3.2 kmh WNW 5.0 mph8.0 kmh 29.79 in1008.8 mb 0.01 in0.3 mm 0.00 in/hr0.0 mm/hr 0.11 in2.8 mm
01:45 PM 28.7°F-1.8°C 26.9°F-2.8°C 93% 3.0 mph NW4.8 kmh NW 8.0 mph12.9 kmh 29.79 in1008.8 mb 0.01 in0.3 mm 0.00 in/hr0.0 mm/hr 0.11 in2.8 mm
02:00 PM 29.7°F-1.3°C 27.9°F-2.3°C 93% 4.0 mph NW6.4 kmh NW 7.0 mph11.3 kmh 29.78 in1008.5 mb 0.01 in0.3 mm 0.00 in/hr0.0 mm/hr 0.11 in2.8 mm
02:15 PM 30.2°F-1.0°C 28.2°F-2.1°C 92% 5.0 mph NNW8.0 kmh NNW 7.0 mph11.3 kmh 29.78 in1008.5 mb 0.00 in0.0 mm 0.00 in/hr0.0 mm/hr 0.11 in2.8 mm
02:30 PM 30.5°F-0.8°C 28.2°F-2.1°C 91% 3.0 mph NW4.8 kmh NW 8.0 mph12.9 kmh 29.78 in1008.5 mb 0.00 in0.0 mm 0.00 in/hr0.0 mm/hr 0.11 in2.8 mm
02:45 PM 30.8°F-0.7°C 28.5°F-1.9°C 91% 2.0 mph NW3.2 kmh NW 6.0 mph9.7 kmh 29.79 in1008.8 mb 0.00 in0.0 mm 0.00 in/hr0.0 mm/hr 0.11 in2.8 mm
03:00 PM 31.1°F-0.5°C 28.2°F-2.1°C 89% 3.0 mph NNW4.8 kmh NNW 8.0 mph12.9 kmh 29.79 in1008.8 mb 0.00 in0.0 mm 0.00 in/hr0.0 mm/hr 0.11 in2.8 mm
03:15 PM 31.1°F-0.5°C 28.2°F-2.1°C 89% 2.0 mph NNW3.2 kmh NNW 9.0 mph14.5 kmh 29.80 in1009.1 mb 0.00 in0.0 mm 0.00 in/hr0.0 mm/hr 0.11 in2.8 mm
03:30 PM 31.0°F-0.6°C 28.1°F-2.2°C 89% 6.0 mph NW9.7 kmh NW 8.0 mph12.9 kmh 29.80 in1009.1 mb 0.00 in0.0 mm 0.00 in/hr0.0 mm/hr 0.11 in2.8 mm
03:45 PM 31.1°F-0.5°C 28.0°F-2.2°C 88% 5.0 mph NW8.0 kmh NW 10.0 mph16.1 kmh 29.82 in1009.8 mb 0.00 in0.0 mm 0.00 in/hr0.0 mm/hr 0.11 in2.8 mm
04:00 PM 31.1°F-0.5°C 28.2°F-2.1°C 89% 4.0 mph NW6.4 kmh NW 4.0 mph6.4 kmh 29.82 in1009.8 mb 0.00 in0.0 mm 0.00 in/hr0.0 mm/hr 0.11 in2.8 mm
04:15 PM 31.2°F-0.4°C 28.1°F-2.2°C 88% 4.0 mph NW6.4 kmh NW 7.0 mph11.3 kmh 29.83 in1010.2 mb 0.00 in0.0 mm 0.00 in/hr0.0 mm/hr 0.11 in2.8 mm
04:30 PM 31.2°F-0.4°C 28.1°F-2.2°C 88% 4.0 mph NW6.4 kmh NW 9.0 mph14.5 kmh 29.84 in1010.5 mb 0.00 in0.0 mm 0.00 in/hr0.0 mm/hr 0.11 in2.8 mm
04:45 PM 31.1°F-0.5°C 28.0°F-2.2°C 88% 2.0 mph NNW3.2 kmh NNW 8.0 mph12.9 kmh 29.85 in1010.8 mb 0.00 in0.0 mm 0.00 in/hr0.0 mm/hr 0.11 in2.8 mm
05:00 PM 31.1°F-0.5°C 28.0°F-2.2°C 88% 3.0 mph NW4.8 kmh NW 10.0 mph16.1 kmh 29.86 in1011.2 mb 0.00 in0.0 mm 0.00 in/hr0.0 mm/hr 0.11 in2.8 mm
05:15 PM 30.8°F-0.7°C 28.0°F-2.2°C 89% 5.0 mph NW8.0 kmh NW 7.0 mph11.3 kmh 29.88 in1011.9 mb 0.00 in0.0 mm 0.00 in/hr0.0 mm/hr 0.11 in2.8 mm
05:30 PM 30.5°F-0.8°C 27.9°F-2.3°C 90% 5.0 mph NW8.0 kmh NW 8.0 mph12.9 kmh 29.89 in1012.2 mb 0.00 in0.0 mm 0.00 in/hr0.0 mm/hr 0.11 in2.8 mm
05:45 PM 30.5°F-0.8°C 28.2°F-2.1°C 91% 3.0 mph W4.8 kmh W 7.0 mph11.3 kmh 29.89 in1012.2 mb 0.00 in0.0 mm 0.00 in/hr0.0 mm/hr 0.11 in2.8 mm
06:00 PM 30.7°F-0.7°C 28.4°F-2.0°C 91% 5.0 mph WNW8.0 kmh WNW 8.0 mph12.9 kmh 29.90 in1012.5 mb 0.00 in0.0 mm 0.00 in/hr0.0 mm/hr 0.11 in2.8 mm
06:15 PM 30.8°F-0.7°C 28.5°F-1.9°C 91% 5.0 mph NW8.0 kmh NW 8.0 mph12.9 kmh 29.91 in1012.9 mb 0.00 in0.0 mm 0.00 in/hr0.0 mm/hr 0.11 in2.8 mm
06:30 PM 30.9°F-0.6°C 28.6°F-1.9°C 91% 6.0 mph NW9.7 kmh NW 13.0 mph20.9 kmh 29.92 in1013.2 mb 0.00 in0.0 mm 0.00 in/hr0.0 mm/hr 0.11 in2.8 mm
06:45 PM 31.1°F-0.5°C 28.2°F-2.1°C 89% 5.0 mph NW8.0 kmh NW 9.0 mph14.5 kmh 29.94 in1013.9 mb 0.00 in0.0 mm 0.00 in/hr0.0 mm/hr 0.11 in2.8 mm
07:00 PM 30.9°F-0.6°C 28.1°F-2.2°C 89% 6.0 mph WNW9.7 kmh WNW 8.0 mph12.9 kmh 29.94 in1013.9 mb 0.00 in0.0 mm 0.00 in/hr0.0 mm/hr 0.11 in2.8 mm
07:15 PM 30.9°F-0.6°C 27.5°F-2.5°C 87% 6.0 mph NW9.7 kmh NW 12.0 mph19.3 kmh 29.95 in1014.2 mb 0.00 in0.0 mm 0.00 in/hr0.0 mm/hr 0.11 in2.8 mm
07:30 PM 30.7°F-0.7°C 26.7°F-2.9°C 85% 7.0 mph WNW11.3 kmh WNW 14.0 mph22.5 kmh 29.96 in1014.6 mb 0.00 in0.0 mm 0.00 in/hr0.0 mm/hr 0.11 in2.8 mm
07:45 PM 30.5°F-0.8°C 26.3°F-3.2°C 84% 3.0 mph NW4.8 kmh NW 10.0 mph16.1 kmh 29.97 in1014.9 mb 0.00 in0.0 mm 0.00 in/hr0.0 mm/hr 0.11 in2.8 mm
08:00 PM 30.0°F-1.1°C 25.2°F-3.8°C 82% 10.0 mph WNW16.1 kmh WNW 15.0 mph24.1 kmh 29.98 in1015.2 mb 0.00 in0.0 mm 0.00 in/hr0.0 mm/hr 0.11 in2.8 mm
08:15 PM 29.3°F-1.5°C 24.5°F-4.2°C 82% 7.0 mph NW11.3 kmh NW 16.0 mph25.7 kmh 29.99 in1015.6 mb 0.00 in0.0 mm 0.00 in/hr0.0 mm/hr 0.11 in2.8 mm
08:30 PM 28.5°F-1.9°C 23.4°F-4.8°C 81% 7.0 mph NW11.3 kmh NW 20.0 mph32.2 kmh 30.00 in1015.9 mb 0.00 in0.0 mm 0.00 in/hr0.0 mm/hr 0.11 in2.8 mm
08:45 PM 28.1°F-2.2°C 22.7°F-5.2°C 80% 10.0 mph NW16.1 kmh NW 15.0 mph24.1 kmh 30.00 in1015.9 mb 0.00 in0.0 mm 0.00 in/hr0.0 mm/hr 0.11 in2.8 mm
09:00 PM 27.7°F-2.4°C 22.4°F-5.3°C 80% 8.0 mph W12.9 kmh W 11.0 mph17.7 kmh 30.01 in1016.3 mb 0.00 in0.0 mm 0.00 in/hr0.0 mm/hr 0.11 in2.8 mm
09:15 PM 27.3°F-2.6°C 22.0°F-5.6°C 80% 7.0 mph NW11.3 kmh NW 16.0 mph25.7 kmh 30.02 in1016.6 mb 0.00 in0.0 mm 0.00 in/hr0.0 mm/hr 0.11 in2.8 mm
09:30 PM 26.5°F-3.1°C 21.2°F-6.0°C 80% 8.0 mph NW12.9 kmh NW 17.0 mph27.4 kmh 30.03 in1016.9 mb 0.00 in0.0 mm 0.00 in/hr0.0 mm/hr 0.11 in2.8 mm
09:45 PM 25.8°F-3.4°C 20.5°F-6.4°C 80% 12.0 mph NW19.3 kmh NW 19.0 mph30.6 kmh 30.04 in1017.3 mb 0.00 in0.0 mm 0.00 in/hr0.0 mm/hr 0.11 in2.8 mm
10:00 PM 25.4°F-3.7°C 20.4°F-6.4°C 81% 12.0 mph WNW19.3 kmh WNW 16.0 mph25.7 kmh 30.04 in1017.3 mb 0.00 in0.0 mm 0.00 in/hr0.0 mm/hr 0.11 in2.8 mm
10:15 PM 24.9°F-3.9°C 19.6°F-6.9°C 80% 4.0 mph NW6.4 kmh NW 13.0 mph20.9 kmh 30.05 in1017.6 mb 0.00 in0.0 mm 0.00 in/hr0.0 mm/hr 0.11 in2.8 mm
10:30 PM 23.5°F-4.7°C 18.0°F-7.8°C 79% 6.0 mph NW9.7 kmh NW 19.0 mph30.6 kmh 30.06 in1017.9 mb 0.00 in0.0 mm 0.00 in/hr0.0 mm/hr 0.11 in2.8 mm
10:45 PM 22.9°F-5.1°C 17.7°F-7.9°C 80% 12.0 mph WNW19.3 kmh WNW 21.0 mph33.8 kmh 30.07 in1018.3 mb 0.00 in0.0 mm 0.00 in/hr0.0 mm/hr 0.11 in2.8 mm
11:00 PM 22.5°F-5.3°C 17.3°F-8.2°C 80% 11.0 mph NW17.7 kmh NW 14.0 mph22.5 kmh 30.08 in1018.6 mb 0.00 in0.0 mm 0.00 in/hr0.0 mm/hr 0.11 in2.8 mm
11:15 PM 22.0°F-5.6°C 16.5°F-8.6°C 79% 13.0 mph WNW20.9 kmh WNW 20.0 mph32.2 kmh 30.09 in1019.0 mb 0.00 in0.0 mm 0.00 in/hr0.0 mm/hr 0.11 in2.8 mm
11:30 PM 21.5°F-5.8°C 15.7°F-9.1°C 78% 8.0 mph NNW12.9 kmh NNW 16.0 mph25.7 kmh 30.10 in1019.3 mb 0.00 in0.0 mm 0.00 in/hr0.0 mm/hr 0.11 in2.8 mm
11:45 PM 21.0°F-6.1°C 15.5°F-9.2°C 79% 8.0 mph NW12.9 kmh NW 14.0 mph22.5 kmh 30.11 in1019.6 mb 0.00 in0.0 mm 0.00 in/hr0.0 mm/hr 0.11 in2.8 mm